Time;durP1;ratioP1;P1;durP2;ratioP2;P2;SDS_P1;SDS_P2;PMS_P1;PMS_P2;Temp;Humidity;BMP_temperature;BMP_pressure;BME280_temperature;BME280_humidity;BME280_pressure;Samples;Min_cycle;Max_cycle;Signal;HPM_P1;HPM_P2
2021/07/20 00:00:26;;;;;;;10.57;8.25;;;;;;;17.56;nan;100790.34;4973326;28;20049;-82
2021/07/20 00:02:54;;;;;;;11.13;8.18;;;;;;;17.57;nan;100785.84;4972515;28;20037;-81
2021/07/20 00:05:21;;;;;;;10.13;7.55;;;;;;;17.57;nan;100786.66;4972562;28;20042;-82
2021/07/20 00:07:48;;;;;;;11.00;7.43;;;;;;;17.56;nan;100785.00;4989834;28;20036;-81
2021/07/20 00:10:17;;;;;;;12.65;9.00;;;;;;;17.53;nan;100795.25;4979332;28;20175;-81
2021/07/20 00:12:43;;;;;;;13.55;9.25;;;;;;;17.55;nan;100788.69;4996511;28;20046;-82
2021/07/20 00:15:11;;;;;;;11.90;8.43;;;;;;;17.55;nan;100787.88;4990529;28;20477;-83
2021/07/20 00:17:40;;;;;;;10.60;7.60;;;;;;;17.57;nan;100786.66;4970153;28;20102;-83
2021/07/20 00:20:06;;;;;;;10.82;7.82;;;;;;;17.56;nan;100789.53;4997071;28;20050;-84
2021/07/20 00:22:32;;;;;;;14.07;10.20;;;;;;;17.54;nan;100791.56;4968547;28;20034;-82
2021/07/20 00:24:57;;;;;;;12.10;9.05;;;;;;;17.60;nan;100793.47;4994475;28;20175;-83
2021/07/20 00:27:23;;;;;;;12.13;8.70;;;;;;;17.62;nan;100794.13;4980348;28;20035;-81
2021/07/20 00:29:48;;;;;;;12.20;9.07;;;;;;;17.60;nan;100791.63;4997135;28;20396;-83
2021/07/20 00:32:13;;;;;;;14.02;9.23;;;;;;;17.59;nan;100791.81;4971856;28;20061;-82
2021/07/20 00:34:40;;;;;;;11.88;8.50;;;;;;;17.55;nan;100793.22;4969397;28;20046;-81
2021/07/20 00:37:06;;;;;;;14.95;9.23;;;;;;;17.42;nan;100788.56;4968998;28;20038;-82
2021/07/20 00:39:31;;;;;;;11.57;8.18;;;;;;;17.34;nan;100786.03;4979442;28;20507;-83
2021/07/20 00:41:56;;;;;;;14.25;9.68;;;;;;;17.25;nan;100784.47;4995931;28;20028;-82
2021/07/20 00:44:22;;;;;;;12.18;8.85;;;;;;;17.12;nan;100786.00;4980979;28;20050;-83
2021/07/20 00:46:47;;;;;;;11.07;8.10;;;;;;;17.09;nan;100788.19;4986367;28;20031;-81
2021/07/20 00:49:12;;;;;;;10.75;8.23;;;;;;;17.03;nan;100788.97;4981023;28;20146;-82
2021/07/20 00:51:38;;;;;;;13.10;8.95;;;;;;;16.97;nan;100782.50;4970059;28;20050;-82
2021/07/20 00:54:03;;;;;;;12.63;7.95;;;;;;;16.90;nan;100782.47;4979762;28;20283;-82
2021/07/20 00:56:28;;;;;;;10.98;8.25;;;;;;;16.91;nan;100783.28;4996920;28;20049;-82
2021/07/20 00:58:54;;;;;;;12.30;9.07;;;;;;;16.89;nan;100782.63;4987791;28;20046;-84
2021/07/20 01:01:21;;;;;;;13.30;9.45;;;;;;;16.88;nan;100786.34;4968979;28;20030;-82
2021/07/20 01:03:46;;;;;;;12.50;8.98;;;;;;;16.86;nan;100783.00;4963849;28;20031;-82
2021/07/20 01:06:12;;;;;;;12.85;9.38;;;;;;;16.87;nan;100792.66;4977150;28;20041;-82
2021/07/20 01:08:40;;;;;;;11.68;8.77;;;;;;;16.87;nan;100788.16;4971352;28;20400;-82
2021/07/20 01:11:06;;;;;;;13.13;8.63;;;;;;;16.91;nan;100785.94;4978415;28;20045;-83
2021/07/20 01:13:32;;;;;;;12.15;8.27;;;;;;;16.93;nan;100782.06;4994930;28;20046;-84
2021/07/20 01:16:00;;;;;;;11.60;8.98;;;;;;;16.93;nan;100778.59;4978763;28;20069;-82
2021/07/20 01:18:27;;;;;;;12.85;9.00;;;;;;;16.95;nan;100773.88;4995439;28;20424;-83
2021/07/20 01:20:53;;;;;;;13.90;9.18;;;;;;;17.03;nan;100778.28;4996397;28;20124;-82
2021/07/20 01:23:32;;;;;;;13.73;9.80;;;;;;;17.12;nan;100782.50;4978145;28;20396;-83
2021/07/20 01:25:57;;;;;;;15.55;10.07;;;;;;;17.13;nan;100776.13;4994565;28;20043;-82
2021/07/20 01:28:24;;;;;;;15.90;9.55;;;;;;;17.17;nan;100777.41;4987636;28;20049;-83
2021/07/20 01:31:03;;;;;;;13.20;9.55;;;;;;;17.19;nan;100773.53;4974248;28;20461;-84
2021/07/20 01:33:32;;;;;;;16.55;9.25;;;;;;;17.22;nan;100775.00;4988570;28;20547;-84
2021/07/20 01:36:01;;;;;;;10.98;8.30;;;;;;;17.18;nan;100771.88;4976837;28;20041;-83
2021/07/20 01:38:28;;;;;;;13.98;9.27;;;;;;;17.23;nan;100773.97;4987094;28;20042;-83
2021/07/20 01:40:58;;;;;;;14.95;9.43;;;;;;;17.25;nan;100779.94;4986200;28;20043;-82
2021/07/20 01:43:25;;;;;;;12.45;9.23;;;;;;;17.22;nan;100776.84;4966855;28;20093;-83
2021/07/20 01:45:54;;;;;;;12.93;9.50;;;;;;;17.17;nan;100783.56;4978381;28;20407;-83
2021/07/20 01:48:21;;;;;;;13.95;8.93;;;;;;;17.13;nan;100778.81;4980744;28;20161;-83
2021/07/20 01:50:47;;;;;;;13.25;9.10;;;;;;;17.12;nan;100780.66;4996303;28;20549;-83
2021/07/20 01:53:13;;;;;;;13.77;9.00;;;;;;;17.07;nan;100772.38;4978864;28;20064;-84
2021/07/20 01:55:38;;;;;;;17.58;10.20;;;;;;;17.03;nan;100771.09;4986284;28;20035;-83
2021/07/20 01:58:04;;;;;;;11.63;9.00;;;;;;;16.96;nan;100778.19;4969962;28;20041;-82
2021/07/20 02:00:30;;;;;;;13.18;9.40;;;;;;;16.92;nan;100774.25;4997296;28;20042;-83
2021/07/20 02:03:32;;;;;;;13.30;8.80;;;;;;;16.75;nan;100771.75;4973112;28;20034;-82
2021/07/20 02:08:49;;;;;;;13.32;8.55;;;;;;;16.47;nan;100776.09;4993878;28;20177;-83
2021/07/20 02:11:23;;;;;;;11.88;8.27;;;;;;;16.40;nan;100783.19;5002301;28;20042;-82
2021/07/20 02:13:54;;;;;;;10.23;8.02;;;;;;;16.34;nan;100776.75;4982046;28;20265;-83
2021/07/20 02:16:25;;;;;;;11.50;8.23;;;;;;;16.30;nan;100780.78;4998328;28;20031;-83
2021/07/20 02:18:56;;;;;;;10.68;7.75;;;;;;;16.26;nan;100772.31;4977699;28;20485;-83
2021/07/20 02:21:23;;;;;;;;;;;;;;;16.27;nan;100773.97;4983930;28;20043;-83
2021/07/20 02:23:53;;;;;;;12.05;7.65;;;;;;;16.27;nan;100779.31;4983962;28;19921;-83
2021/07/20 02:26:20;;;;;;;12.05;7.90;;;;;;;16.24;nan;100774.34;4982366;28;20031;-84
2021/07/20 02:28:48;;;;;;;11.02;7.88;;;;;;;16.24;nan;100770.84;5001727;28;20026;-83
2021/07/20 02:31:15;;;;;;;11.45;8.18;;;;;;;16.22;nan;100770.22;4993691;28;20023;-85
2021/07/20 02:33:42;;;;;;;13.57;9.07;;;;;;;16.20;nan;100769.56;5006025;28;20061;-86
2021/07/20 02:36:08;;;;;;;10.82;7.90;;;;;;;16.16;nan;100770.91;4991082;28;20080;-84
2021/07/20 02:38:37;;;;;;;9.95;7.45;;;;;;;16.09;nan;100765.50;4986333;28;20034;-83
2021/07/20 02:41:03;;;;;;;10.40;7.10;;;;;;;16.06;nan;100765.84;5003605;28;20030;-85
2021/07/20 02:43:29;;;;;;;9.10;7.00;;;;;;;16.02;nan;100769.91;4982749;28;20109;-82
2021/07/20 02:45:56;;;;;;;10.82;7.72;;;;;;;15.92;nan;100762.13;4988469;28;20045;-86
2021/07/20 02:48:23;;;;;;;10.20;7.60;;;;;;;15.88;nan;100766.19;4992121;28;20042;-84
2021/07/20 02:50:50;;;;;;;13.07;9.18;;;;;;;15.81;nan;100766.09;4998707;28;20054;-83
2021/07/20 02:53:16;;;;;;;11.63;8.70;;;;;;;15.70;nan;100767.34;4983575;28;20209;-85
2021/07/20 02:55:42;;;;;;;11.25;8.38;;;;;;;15.64;nan;100756.56;4999302;28;20046;-86
2021/07/20 02:58:08;;;;;;;12.00;8.40;;;;;;;15.58;nan;100758.06;4988100;28;20183;-85
2021/07/20 03:00:34;;;;;;;12.52;8.82;;;;;;;15.51;nan;100752.63;4999852;28;20528;-85
2021/07/20 03:02:59;;;;;;;11.65;8.77;;;;;;;15.47;nan;100764.66;4979118;28;20023;-84
2021/07/20 03:05:25;;;;;;;14.45;9.70;;;;;;;15.38;nan;100760.41;4981408;28;20049;-83
2021/07/20 03:07:55;;;;;;;12.90;8.85;;;;;;;15.32;nan;100752.28;4991590;28;20034;-83
2021/07/20 03:10:23;;;;;;;13.57;9.25;;;;;;;15.23;nan;100752.34;4977488;28;20026;-84
2021/07/20 03:12:51;;;;;;;16.50;10.25;;;;;;;15.16;nan;100764.72;4994657;28;20121;-83
2021/07/20 03:15:17;;;;;;;11.98;9.05;;;;;;;15.09;nan;100761.09;4997084;28;20423;-82
2021/07/20 03:17:44;;;;;;;13.82;9.75;;;;;;;15.03;nan;100759.94;5001142;28;20090;-83
2021/07/20 03:20:12;;;;;;;13.18;8.65;;;;;;;14.99;nan;100758.66;4992872;28;20027;-84
2021/07/20 03:22:40;;;;;;;15.60;10.57;;;;;;;14.97;nan;100755.34;4971906;28;20030;-83
2021/07/20 03:25:06;;;;;;;13.15;9.88;;;;;;;14.91;nan;100761.34;4997401;28;20038;-83
2021/07/20 03:27:34;;;;;;;13.68;9.75;;;;;;;14.88;nan;100768.88;4978344;28;20035;-84
2021/07/20 03:30:00;;;;;;;13.75;9.45;;;;;;;14.86;nan;100767.19;4978977;28;20030;-82
2021/07/20 03:32:26;;;;;;;13.75;9.80;;;;;;;14.81;nan;100760.75;4985340;28;20047;-83
2021/07/20 03:34:53;;;;;;;13.77;9.68;;;;;;;14.79;nan;100770.72;5000586;28;20436;-83
2021/07/20 03:37:20;;;;;;;15.73;10.07;;;;;;;14.75;nan;100764.91;5000552;28;20037;-84
2021/07/20 03:39:46;;;;;;;14.57;9.75;;;;;;;14.71;nan;100776.09;4979303;28;20039;-85
2021/07/20 03:42:11;;;;;;;13.23;9.50;;;;;;;14.70;nan;100774.41;4999033;28;20030;-84
2021/07/20 03:44:38;;;;;;;12.85;9.02;;;;;;;14.70;nan;100772.59;5001808;28;20512;-84
2021/07/20 03:47:05;;;;;;;14.30;9.75;;;;;;;14.66;nan;100776.63;5003374;28;20139;-84
2021/07/20 03:49:32;;;;;;;15.63;10.68;;;;;;;14.61;nan;100776.28;4986734;28;20045;-85
2021/07/20 03:51:58;;;;;;;14.07;9.45;;;;;;;14.60;nan;100777.28;5002242;28;20401;-84
2021/07/20 03:54:26;;;;;;;13.18;9.73;;;;;;;14.58;nan;100776.63;4995132;28;20038;-84
2021/07/20 03:56:52;;;;;;;14.48;9.82;;;;;;;14.54;nan;100776.16;5005576;28;20041;-85
2021/07/20 03:59:18;;;;;;;14.73;9.98;;;;;;;14.51;nan;100775.63;4982129;28;20065;-84
2021/07/20 04:01:46;;;;;;;13.95;10.05;;;;;;;14.48;nan;100779.47;4977366;28;20023;-84
2021/07/20 04:04:16;;;;;;;11.70;8.80;;;;;;;14.48;nan;100775.97;4994711;28;20022;-82
2021/07/20 04:06:42;;;;;;;13.50;9.18;;;;;;;14.49;nan;100783.78;4994682;28;20110;-82
2021/07/20 04:09:11;;;;;;;15.88;10.10;;;;;;;14.51;nan;100783.59;4993422;28;20034;-83
2021/07/20 04:11:38;;;;;;;13.43;9.82;;;;;;;14.49;nan;100783.78;4989345;28;20125;-83
2021/07/20 04:14:05;;;;;;;13.52;9.88;;;;;;;14.47;nan;100785.78;4991164;28;20077;-82
2021/07/20 04:16:31;;;;;;;15.20;10.90;;;;;;;14.46;nan;100786.78;4989841;28;20045;-84
2021/07/20 04:18:57;;;;;;;12.20;8.95;;;;;;;14.49;nan;100786.47;4994670;28;20030;-82
2021/07/20 04:21:23;;;;;;;14.85;10.02;;;;;;;14.47;nan;100790.25;4995015;28;20056;-83
2021/07/20 04:23:50;;;;;;;14.27;10.07;;;;;;;14.46;nan;100778.78;4977214;28;20037;-81
2021/07/20 04:26:16;;;;;;;13.48;9.30;;;;;;;14.51;nan;100787.09;4978341;28;20042;-83
2021/07/20 04:28:42;;;;;;;14.50;10.00;;;;;;;14.54;nan;100786.81;4985122;28;20129;-82
2021/07/20 04:31:09;;;;;;;13.85;9.93;;;;;;;14.56;nan;100787.47;4990829;28;20062;-83
2021/07/20 04:33:36;;;;;;;14.27;10.38;;;;;;;14.58;nan;100788.09;4991923;28;20042;-82
2021/07/20 04:36:03;;;;;;;15.07;9.93;;;;;;;14.61;nan;100798.41;4989481;28;20035;-83
2021/07/20 04:38:32;;;;;;;15.43;10.20;;;;;;;14.64;nan;100791.91;4993528;28;20073;-83
2021/07/20 04:40:58;;;;;;;14.15;10.05;;;;;;;14.65;nan;100794.38;4996117;28;20040;-82
2021/07/20 04:43:24;;;;;;;13.27;9.18;;;;;;;14.74;nan;100794.38;4973921;28;20150;-83
2021/07/20 04:45:53;;;;;;;13.07;8.65;;;;;;;14.75;nan;100791.53;4988063;28;20038;-82
2021/07/20 04:48:18;;;;;;;12.68;9.15;;;;;;;14.81;nan;100793.50;4987402;28;20027;-82
2021/07/20 04:50:44;;;;;;;13.75;9.13;;;;;;;14.85;nan;100791.34;4985256;28;20055;-83
2021/07/20 04:53:11;;;;;;;12.65;9.25;;;;;;;14.91;nan;100798.63;4978776;28;20029;-84
2021/07/20 04:55:39;;;;;;;14.15;9.45;;;;;;;14.98;nan;100802.25;4992855;28;20042;-82
2021/07/20 04:58:05;;;;;;;13.02;9.05;;;;;;;15.05;nan;100805.88;4971070;28;20437;-81
2021/07/20 05:00:35;;;;;;;14.48;10.40;;;;;;;15.09;nan;100801.03;4993264;28;20030;-83
2021/07/20 05:03:02;;;;;;;16.02;10.50;;;;;;;15.14;nan;100805.84;4959536;28;20045;-84
2021/07/20 05:05:30;;;;;;;15.90;11.05;;;;;;;15.13;nan;100810.31;4987246;28;20997;-82
2021/07/20 05:07:58;;;;;;;14.00;10.15;;;;;;;15.14;nan;100808.50;4992540;28;20108;-82
2021/07/20 05:10:25;;;;;;;16.90;10.25;;;;;;;15.15;nan;100808.31;4996592;28;20038;-82
2021/07/20 05:12:50;;;;;;;14.98;10.32;;;;;;;15.23;nan;100805.63;4979940;28;20033;-83
2021/07/20 05:15:18;;;;;;;13.48;9.68;;;;;;;15.26;nan;100820.44;4989648;28;20057;-82
2021/07/20 05:17:45;;;;;;;15.57;11.10;;;;;;;15.28;nan;100813.91;4985503;28;20053;-82
2021/07/20 05:20:17;;;;;;;17.10;10.65;;;;;;;15.34;nan;100820.38;4995381;28;20090;-82
2021/07/20 05:22:44;;;;;;;15.43;10.60;;;;;;;15.38;nan;100821.69;4984271;28;20061;-84
2021/07/20 05:25:11;;;;;;;16.05;10.43;;;;;;;15.41;nan;100820.50;4996373;28;20035;-82
2021/07/20 05:27:38;;;;;;;14.57;9.75;;;;;;;15.43;nan;100823.81;5002540;28;20121;-82
2021/07/20 05:30:08;;;;;;;15.90;10.38;;;;;;;15.45;nan;100830.63;4985346;28;20073;-82
2021/07/20 05:32:36;;;;;;;13.52;9.30;;;;;;;15.54;nan;100830.56;4991037;28;20090;-83
2021/07/20 05:35:04;;;;;;;12.02;8.52;;;;;;;15.60;nan;100835.22;5002127;28;20400;-83
2021/07/20 05:37:34;;;;;;;13.60;9.73;;;;;;;15.62;nan;100828.69;4994887;28;20058;-84
2021/07/20 05:40:00;;;;;;;11.98;8.48;;;;;;;15.71;nan;100824.16;5002946;28;20049;-83
2021/07/20 05:42:28;;;;;;;12.48;9.32;;;;;;;15.83;nan;100833.41;4981379;28;20039;-82
2021/07/20 05:44:54;;;;;;;11.07;7.90;;;;;;;16.00;nan;100828.75;4989485;28;20060;-83
2021/07/20 05:47:20;;;;;;;12.77;8.68;;;;;;;16.09;nan;100830.34;4984917;28;20485;-83
2021/07/20 05:49:45;;;;;;;13.07;9.52;;;;;;;16.25;nan;100824.03;4991930;28;20031;-83
2021/07/20 05:52:15;;;;;;;12.07;8.85;;;;;;;16.52;nan;100829.78;4994402;28;20039;-83
2021/07/20 05:54:44;;;;;;;9.63;7.10;;;;;;;16.85;nan;100829.41;5000687;28;20380;-83
2021/07/20 05:57:11;;;;;;;12.77;9.00;;;;;;;17.15;nan;100838.22;4997588;28;20058;-83
2021/07/20 05:59:42;;;;;;;14.10;9.07;;;;;;;17.55;nan;100833.34;5009541;28;20407;-83
2021/07/20 06:02:12;;;;;;;11.25;8.05;;;;;;;17.90;nan;100834.31;4986068;28;20407;-82
2021/07/20 06:04:38;;;;;;;12.68;8.52;;;;;;;18.22;nan;100837.47;5004947;28;20039;-86
2021/07/20 06:07:08;;;;;;;12.57;9.02;;;;;;;18.52;nan;100837.25;4992607;28;20033;-83
2021/07/20 06:09:35;;;;;;;12.63;9.63;;;;;;;18.83;nan;100840.34;5003632;28;20045;-83
2021/07/20 06:12:04;;;;;;;13.02;9.13;;;;;;;19.06;nan;100844.56;4999436;28;20038;-84
2021/07/20 06:14:31;;;;;;;12.80;9.88;;;;;;;19.29;nan;100842.38;4994826;28;20100;-84
2021/07/20 06:16:57;;;;;;;13.07;9.40;;;;;;;19.64;nan;100852.16;5002571;28;20041;-83
2021/07/20 06:19:23;;;;;;;12.23;9.15;;;;;;;19.92;nan;100852.03;5001971;28;20035;-84
2021/07/20 06:21:49;;;;;;;11.60;8.52;;;;;;;20.22;nan;100846.28;4979557;28;20086;-84
2021/07/20 06:24:15;;;;;;;11.13;8.43;;;;;;;20.54;nan;100844.56;4995068;28;20030;-83
2021/07/20 06:26:41;;;;;;;10.95;8.18;;;;;;;20.88;nan;100845.31;4999235;28;20122;-84
2021/07/20 06:29:11;;;;;;;11.50;8.32;;;;;;;21.11;nan;100850.22;5003834;28;20419;-83
2021/07/20 06:31:39;;;;;;;14.30;8.25;;;;;;;21.28;nan;100845.97;4995688;28;20049;-83
2021/07/20 06:34:05;;;;;;;13.43;8.15;;;;;;;21.61;nan;100851.22;4991640;28;20089;-84
2021/07/20 06:36:33;;;;;;;10.85;7.88;;;;;;;21.90;nan;100848.13;4994413;28;20094;-84
2021/07/20 06:38:58;;;;;;;11.00;8.18;;;;;;;22.04;nan;100857.75;4986580;28;20041;-83
2021/07/20 06:41:23;;;;;;;10.45;8.13;;;;;;;22.08;nan;100858.97;5006201;28;20030;-85
2021/07/20 06:43:51;;;;;;;12.93;8.75;;;;;;;22.36;nan;100855.84;4990058;28;20030;-83
2021/07/20 06:46:20;;;;;;;11.77;7.57;;;;;;;22.58;nan;100877.00;5006034;28;20050;-85
2021/07/20 06:48:46;;;;;;;12.77;8.38;;;;;;;22.79;nan;100865.78;4991754;28;20106;-84
2021/07/20 06:51:11;;;;;;;12.13;8.75;;;;;;;22.87;nan;100861.94;4970830;28;20082;-84
2021/07/20 06:53:38;;;;;;;12.50;8.43;;;;;;;22.69;nan;100865.44;4969300;28;20081;-84
2021/07/20 06:56:06;;;;;;;12.40;9.40;;;;;;;22.64;nan;100859.91;4973211;28;20045;-84
2021/07/20 06:58:33;;;;;;;11.77;7.97;;;;;;;22.88;nan;100860.88;4988594;28;20046;-84
2021/07/20 07:01:02;;;;;;;12.18;8.43;;;;;;;23.04;nan;100865.72;4981116;28;20041;-84
2021/07/20 07:03:47;;;;;;;11.27;8.25;;;;;;;23.29;nan;100859.41;4988274;28;20026;-84
2021/07/20 07:06:16;;;;;;;13.20;8.70;;;;;;;23.26;nan;100863.38;4995937;28;20081;-85
2021/07/20 07:08:42;;;;;;;15.88;9.50;;;;;;;23.56;nan;100865.25;5005115;28;20062;-84
2021/07/20 07:11:07;;;;;;;13.90;8.40;;;;;;;23.65;nan;100869.28;5006099;28;20034;-85
2021/07/20 07:13:35;;;;;;;10.27;8.30;;;;;;;23.83;nan;100867.59;4985647;28;20045;-84
2021/07/20 07:16:01;;;;;;;10.00;7.22;;;;;;;24.02;nan;100862.94;4992915;28;20041;-84
2021/07/20 07:18:27;;;;;;;10.85;7.53;;;;;;;24.40;nan;100867.06;4994687;28;20112;-85
2021/07/20 07:20:55;;;;;;;11.13;7.78;;;;;;;24.48;nan;100870.28;4986430;28;20320;-84
2021/07/20 07:23:21;;;;;;;12.00;8.40;;;;;;;24.56;nan;100871.81;4996641;28;20043;-85
2021/07/20 07:25:52;;;;;;;11.20;7.82;;;;;;;24.48;nan;100877.53;4987051;28;20038;-85
2021/07/20 07:28:20;;;;;;;10.55;7.93;;;;;;;24.63;nan;100875.19;4989797;28;20047;-84
2021/07/20 07:30:50;;;;;;;10.85;7.18;;;;;;;24.97;nan;100872.69;4998571;28;20027;-84
2021/07/20 07:33:17;;;;;;;9.05;6.93;;;;;;;24.97;nan;100872.69;4986127;28;20033;-85
2021/07/20 07:35:42;;;;;;;9.57;7.05;;;;;;;25.07;nan;100872.88;4988958;28;20088;-84
2021/07/20 07:38:09;;;;;;;8.55;6.35;;;;;;;25.14;nan;100873.56;5003471;28;20089;-83
2021/07/20 07:40:36;;;;;;;8.82;6.32;;;;;;;25.47;nan;100874.78;4993073;28;20397;-84
2021/07/20 07:43:05;;;;;;;9.43;6.40;;;;;;;25.66;nan;100871.88;5002854;28;20155;-83
2021/07/20 07:45:32;;;;;;;10.00;6.60;;;;;;;26.15;nan;100869.44;5002529;28;20026;-83
2021/07/20 07:47:59;;;;;;;11.15;7.05;;;;;;;26.17;nan;100873.59;4976503;28;20030;-83
2021/07/20 07:50:25;;;;;;;12.45;7.63;;;;;;;26.04;nan;100871.19;4994897;28;20412;-83
2021/07/20 07:52:52;;;;;;;7.50;5.57;;;;;;;26.27;nan;100872.91;4970863;28;20050;-82
2021/07/20 07:55:21;;;;;;;7.80;5.68;;;;;;;26.68;nan;100884.38;4982325;28;20034;-83
2021/07/20 07:57:48;;;;;;;9.02;6.55;;;;;;;27.00;nan;100870.13;4978578;28;20045;-85
2021/07/20 08:00:14;;;;;;;10.38;6.72;;;;;;;26.88;nan;100873.78;4972456;28;20042;-83
2021/07/20 08:02:43;;;;;;;11.00;7.40;;;;;;;26.91;nan;100875.19;4965857;28;20038;-83
2021/07/20 08:05:09;;;;;;;10.15;5.80;;;;;;;27.14;nan;100871.38;4977840;28;20031;-83
2021/07/20 08:07:37;;;;;;;8.18;6.28;;;;;;;27.53;nan;100874.03;4998483;28;20117;-83
2021/07/20 08:10:04;;;;;;;10.93;6.85;;;;;;;26.82;nan;100877.53;4969394;28;20093;-83
2021/07/20 08:12:30;;;;;;;9.15;6.63;;;;;;;27.20;nan;100877.75;4960854;28;20049;-84
2021/07/20 08:14:55;;;;;;;10.65;6.65;;;;;;;27.78;nan;100872.63;4972838;28;20039;-83
2021/07/20 08:17:23;;;;;;;8.27;6.45;;;;;;;27.68;nan;100879.59;4983300;28;20054;-84
2021/07/20 08:19:51;;;;;;;8.25;5.82;;;;;;;28.00;nan;100869.84;4990912;28;20061;-83
2021/07/20 08:22:18;;;;;;;10.50;6.93;;;;;;;28.25;nan;100877.38;4972894;28;20086;-83
2021/07/20 08:24:55;;;;;;;8.63;6.38;;;;;;;28.10;nan;100881.63;4972610;28;20027;-84
2021/07/20 08:27:32;;;;;;;9.35;6.93;;;;;;;27.42;nan;100888.56;4997930;28;20062;-82
2021/07/20 08:30:00;;;;;;;9.20;6.85;;;;;;;26.32;nan;100883.84;4990800;28;20030;-83
2021/07/20 08:32:29;;;;;;;8.45;6.75;;;;;;;25.66;nan;100872.69;4980793;28;20045;-83
2021/07/20 08:35:04;;;;;;;8.82;6.65;;;;;;;25.70;nan;100875.75;4969660;28;20041;-83
2021/07/20 08:37:32;;;;;;;9.45;7.20;;;;;;;26.02;nan;100876.84;4997066;28;20097;-83
2021/07/20 08:40:08;;;;;;;11.43;7.13;;;;;;;25.77;nan;100871.81;4987007;28;20061;-83
2021/07/20 08:43:12;;;;;;;12.40;7.50;;;;;;;25.34;nan;100883.19;4963925;28;20094;-84
2021/07/20 08:45:55;;;;;;;9.75;7.35;;;;;;;24.42;nan;100887.41;4970073;28;20037;-82
2021/07/20 08:48:44;;;;;;;10.45;7.43;;;;;;;23.90;nan;100881.81;4974255;28;20058;-83
2021/07/20 08:51:15;;;;;;;9.77;6.93;;;;;;;23.57;nan;100885.78;4998030;28;20030;-82
2021/07/20 08:53:49;;;;;;;11.52;7.20;;;;;;;23.39;nan;100886.66;4970149;28;20107;-82
2021/07/20 08:56:18;;;;;;;10.38;7.30;;;;;;;24.00;nan;100883.94;4994196;28;20035;-82
2021/07/20 08:58:49;;;;;;;9.00;6.63;;;;;;;24.31;nan;100883.66;4997933;28;20033;-82
2021/07/20 09:01:40;;;;;;;11.65;7.13;;;;;;;25.29;nan;100889.34;4993454;28;20069;-82
2021/07/20 09:04:10;;;;;;;9.23;6.90;;;;;;;26.34;nan;100881.69;4969800;28;20027;-82
2021/07/20 09:06:35;;;;;;;8.18;6.50;;;;;;;26.71;nan;100899.34;4981732;28;20057;-82
2021/07/20 09:09:18;;;;;;;11.90;6.80;;;;;;;26.52;nan;100891.44;4985761;28;20134;-82
2021/07/20 09:11:54;;;;;;;11.82;7.38;;;;;;;26.92;nan;100884.97;4999173;28;20439;-82
2021/07/20 09:14:26;;;;;;;8.85;6.60;;;;;;;27.66;nan;100894.53;4990719;28;20039;-82
2021/07/20 09:16:55;;;;;;;9.95;6.50;;;;;;;27.83;nan;100889.00;4997490;28;20033;-84
2021/07/20 09:19:31;;;;;;;9.95;6.13;;;;;;;27.55;nan;100888.16;4997226;28;20041;-82
2021/07/20 09:22:06;;;;;;;7.55;5.53;;;;;;;27.49;nan;100889.19;4968119;28;20508;-83
2021/07/20 09:25:02;;;;;;;9.00;6.13;;;;;;;26.95;nan;100881.75;4976699;28;20038;-83
2021/07/20 09:27:47;;;;;;;7.10;5.45;;;;;;;27.45;nan;100888.06;4986133;28;20035;-83
2021/07/20 09:30:18;;;;;;;8.45;6.15;;;;;;;27.37;nan;100881.19;4966826;28;20039;-84
2021/07/20 09:33:02;;;;;;;9.55;6.43;;;;;;;27.25;nan;100881.34;4963252;28;20061;-84
2021/07/20 09:35:35;;;;;;;8.95;6.80;;;;;;;26.80;nan;100885.09;4970812;28;20026;-84
2021/07/20 09:38:15;;;;;;;8.43;6.43;;;;;;;26.32;nan;100878.41;4975492;28;20038;-83
2021/07/20 09:40:45;;;;;;;9.10;6.72;;;;;;;26.14;nan;100878.66;4984895;28;20049;-84
2021/07/20 09:43:37;;;;;;;10.27;6.35;;;;;;;26.42;nan;100878.56;4959222;28;20023;-83
2021/07/20 09:46:06;;;;;;;9.35;6.50;;;;;;;26.49;nan;100876.50;4978414;28;20042;-87
2021/07/20 09:48:41;;;;;;;7.97;6.03;;;;;;;26.67;nan;100877.28;4994845;28;20040;-83
2021/07/20 09:51:30;;;;;;;8.60;6.03;;;;;;;26.71;nan;100874.91;4971035;28;20031;-83
2021/07/20 09:54:18;;;;;;;8.93;5.60;;;;;;;26.64;nan;100878.63;4988231;28;20054;-83
2021/07/20 09:57:11;;;;;;;9.00;6.10;;;;;;;26.68;nan;100870.81;4969807;28;20066;-84
2021/07/20 09:59:59;;;;;;;7.95;6.15;;;;;;;26.79;nan;100877.19;4971215;28;20107;-83
2021/07/20 10:02:35;;;;;;;7.90;5.70;;;;;;;26.96;nan;100875.25;4997600;28;20571;-83
2021/07/20 10:05:25;;;;;;;7.80;5.75;;;;;;;26.99;nan;100879.34;4962180;28;20058;-84
2021/07/20 10:07:59;;;;;;;9.00;5.68;;;;;;;26.68;nan;100868.91;4974194;28;20084;-83
2021/07/20 10:10:39;;;;;;;8.20;5.82;;;;;;;26.63;nan;100863.44;4982168;28;20513;-85
2021/07/20 10:13:07;;;;;;;8.85;5.60;;;;;;;26.71;nan;100873.03;4993455;28;20524;-83
2021/07/20 10:15:38;;;;;;;7.13;5.25;;;;;;;26.99;nan;100857.66;4979157;28;20062;-83
2021/07/20 10:18:12;;;;;;;8.27;5.63;;;;;;;26.75;nan;100857.88;4973692;28;20084;-82
2021/07/20 10:20:43;;;;;;;9.23;6.55;;;;;;;26.85;nan;100852.59;4980014;28;20042;-84
2021/07/20 10:23:15;;;;;;;8.77;6.20;;;;;;;26.63;nan;100849.06;4996013;28;20027;-85
2021/07/20 10:25:46;;;;;;;11.55;7.15;;;;;;;26.55;nan;100852.19;4988921;28;20059;-83
2021/07/20 10:28:19;;;;;;;8.95;6.40;;;;;;;26.08;nan;100853.38;4964853;28;20065;-84
2021/07/20 10:31:02;;;;;;;8.90;6.45;;;;;;;26.05;nan;100857.41;4993382;28;20072;-87
2021/07/20 10:33:38;;;;;;;13.73;7.10;;;;;;;25.85;nan;100846.19;4992435;28;20035;-85
2021/07/20 10:36:32;;;;;;;10.10;6.35;;;;;;;25.77;nan;100847.41;4995345;28;20436;-84
2021/07/20 10:39:07;;;;;;;9.85;6.60;;;;;;;25.59;nan;100843.03;4975136;28;20440;-84
2021/07/20 10:41:43;;;;;;;9.02;6.38;;;;;;;25.77;nan;100841.19;4997340;28;20156;-84
2021/07/20 10:44:13;;;;;;;9.43;7.05;;;;;;;25.98;nan;100842.34;4974247;28;20358;-84
2021/07/20 10:46:41;;;;;;;8.88;6.35;;;;;;;25.84;nan;100841.84;4973976;28;20113;-84
2021/07/20 10:49:29;;;;;;;10.80;7.07;;;;;;;25.57;nan;100842.44;4995615;28;20511;-84
2021/07/20 10:52:03;;;;;;;10.35;7.30;;;;;;;25.59;nan;100834.91;4973912;28;20488;-84
2021/07/20 10:54:37;;;;;;;10.23;6.32;;;;;;;25.56;nan;100846.25;4980409;28;20037;-84
2021/07/20 10:57:10;;;;;;;9.38;6.80;;;;;;;25.62;nan;100850.69;4980672;28;20038;-84
2021/07/20 10:59:54;;;;;;;9.13;6.50;;;;;;;25.35;nan;100845.03;4982121;28;20174;-84
2021/07/20 11:02:48;;;;;;;10.70;7.25;;;;;;;25.19;nan;100846.66;4970866;28;20039;-84
2021/07/20 11:05:15;;;;;;;7.10;5.45;;;;;;;25.18;nan;100838.75;4977471;28;20038;-85
2021/07/20 11:07:52;;;;;;;8.68;6.30;;;;;;;25.33;nan;100839.03;5000629;28;20042;-85
2021/07/20 11:10:27;;;;;;;9.52;6.80;;;;;;;25.60;nan;100827.63;4966564;28;20035;-84
2021/07/20 11:12:59;;;;;;;9.13;7.03;;;;;;;25.58;nan;100825.16;4985046;28;20133;-85
2021/07/20 11:15:25;;;;;;;9.68;6.75;;;;;;;25.20;nan;100834.75;4991206;28;20056;-84
2021/07/20 11:17:52;;;;;;;8.07;5.88;;;;;;;25.30;nan;100836.81;4962293;28;20086;-85
2021/07/20 11:20:20;;;;;;;9.63;6.60;;;;;;;25.40;nan;100820.75;4978999;28;20030;-84
2021/07/20 11:22:48;;;;;;;9.40;6.15;;;;;;;25.63;nan;100819.81;4972115;28;20037;-85
2021/07/20 11:25:15;;;;;;;9.02;6.75;;;;;;;25.69;nan;100825.31;4982310;28;20035;-85
2021/07/20 11:27:44;;;;;;;8.85;6.30;;;;;;;25.56;nan;100824.56;4989559;28;20041;-83
2021/07/20 11:30:13;;;;;;;9.88;6.75;;;;;;;25.60;nan;100824.94;4972508;28;20027;-85
2021/07/20 11:32:51;;;;;;;8.32;6.15;;;;;;;25.51;nan;100820.97;4984662;28;20053;-85
2021/07/20 11:35:19;;;;;;;9.82;6.90;;;;;;;25.46;nan;100821.69;4979655;28;20038;-84
2021/07/20 11:37:50;;;;;;;8.65;6.68;;;;;;;25.37;nan;100823.16;4967361;28;20042;-84
2021/07/20 11:40:21;;;;;;;9.45;6.70;;;;;;;25.26;nan;100824.84;4984541;28;20042;-84
2021/07/20 11:43:03;;;;;;;10.15;6.95;;;;;;;25.30;nan;100825.19;4971964;28;20034;-85
2021/07/20 11:45:35;;;;;;;8.82;6.22;;;;;;;25.15;nan;100815.69;4994657;28;20038;-84
2021/07/20 11:48:13;;;;;;;9.93;6.32;;;;;;;25.18;nan;100823.34;4991402;28;20037;-84